Delta, Utah Weather observations

Data are for observation ending at time listed.
 Day   Time    Ave.   Ave.  Ave.  Vector   Max.   Stn.    Total    Solar   Ave.  
  of    of     Air    Rel.  Wind   Wind    Wind   Baro.  Precip.   Rad.    Soil  
Year   Day     Temp.  Hum.  Speed  Dir.    Gust   Pres.                    Temp. 
2014   (MST)    F      %     mph   deg.    mph     mb.     in.     W/m2     F   
------------------------------------------------------------------------------
 352    7:00   26.2    92    0.5   271      1.6   862.5    0.00       0    99999.0
 352    7:10   26.5    92    1.6   274      2.5   862.6    0.00       0    99999.0
 352    7:20   26.2    91    1.2   274      2.1   862.7    0.00       0    99999.0
 352    7:30   26.3    91    0.6   274      1.1   862.8    0.00       0    99999.0
 352    7:40   26.4    91    0.2   274      0.7   862.8    0.00       0    99999.0
 352    7:50   26.1    91    0.1   274      0.7   862.9    0.00       3    99999.0
 352    8:00   26.2    92    0.8   329      3.0   863.0    0.00       5    99999.0
 352    8:10   24.6    91    1.2   318      2.5   863.2    0.00       6    99999.0
 352    8:20   24.3    91    1.0   310      3.9   863.3    0.00      16    99999.0
 352    8:30   22.7    91    1.6   327      3.8   863.3    0.00      18    99999.0
 352    8:40   22.0    92    1.4   344      2.3   863.4    0.00      42    99999.0
 352    8:50   22.7    92    1.1   344      1.8   863.5    0.00      42    99999.0
 352    9:00   24.1    92    0.1   352      1.2   863.6    0.00      40    99999.0
 352    9:10   26.4    91    0.0     0      0.0   863.7    0.00      65    99999.0
 352    9:20   28.2    91    0.8   101      1.8   863.8    0.00      72    99999.0
 352    9:30   30.9    90    1.0   126      1.7   863.9    0.00     134    99999.0
 352    9:40   33.1    88    1.6   140      2.6   864.0    0.00      89    99999.0
 352    9:50   34.2    86    2.4   173      3.2   864.1    0.00     136    99999.0
 352   10:00   35.0    85    3.1   195      5.6   864.3    0.00     150    99999.0
 352   10:10   35.4    84    3.4   187      5.8   864.4    0.00     177    99999.0
 352   10:20   35.5    83    3.0   177      5.0   864.5    0.00     227    99999.0
 352   10:30   36.0    82    2.5   188      4.2   864.5    0.00     144    99999.0
 352   10:40   36.3    81    2.6   206      4.1   864.6    0.00     137    99999.0
 352   10:50   37.0    80    2.5   190      4.1   864.6    0.00     199    99999.0
 352   11:00   37.7    78    3.2   168      4.7   864.5    0.00     261    99999.0
 352   11:10   38.5    77    2.6   174      4.2   864.4    0.00     281    99999.0
 352   11:20   39.3    75    2.6   174      4.5   864.4    0.00     193    99999.0
 352   11:30   39.6    73    3.1   196      5.7   864.3    0.00     266    99999.0
 352   11:40   39.9    71    3.4   180      6.4   864.2    0.00     285    99999.0
 352   11:50   40.5    70    3.2   175      5.2   864.1    0.00     218    99999.0
 352   12:00   40.6    69    3.1   218      5.7   864.0    0.00     105    99999.0
 352   12:10   41.1    68    2.8   195      5.4   863.9    0.00     140    99999.0
 352   12:20   41.2    67    3.0   231      4.8   863.8    0.00     140    99999.0
 352   12:30   41.7    66    2.8   228      5.5   863.7    0.00     163    99999.0
 352   12:40   41.6    66    3.1   224      5.0   863.7    0.00     242    99999.0
 352   12:50   41.8    65    3.3   213      6.4   863.6    0.00     255    99999.0
 352   13:00   42.2    64    3.2   209      6.9   863.5    0.00     236    99999.0
 352   13:10   42.1    63    3.2   217      6.0   863.4    0.00     154    99999.0
 352   13:20   42.5    62    3.3   199      6.6   863.3    0.00     256    99999.0
 352   13:30   43.3    60    2.9   183      5.6   863.1    0.00     247    99999.0
 352   13:40   43.8    59    3.4   218      6.3   863.1    0.00     326    99999.0
 352   13:50   44.0    58    3.6   198      7.0   862.9    0.00     276    99999.0
 352   14:00   43.8    58    2.7   202      6.0   862.8    0.00     192    99999.0
 352   14:10   44.0    56    3.5   183      7.5   862.9    0.00     114    99999.0
 352   14:20   43.9    56    2.6   196      6.6   862.8    0.00     140    99999.0
 352   14:30   45.2    53    1.6   192      4.7   862.8    0.00     152    99999.0
 352   14:40   44.9    51    2.9   189      5.0   862.8    0.00     137    99999.0
 352   14:50   44.9    50    2.0   221      5.2   862.8    0.00     139    99999.0
 352   15:00   45.1    50    1.2   273      3.4   862.9    0.00      65    99999.0
 352   15:10   45.5    49    2.3   180      5.8   862.9    0.00     133    99999.0
 352   15:20   44.5    48    2.0   196      4.4   862.9    0.00     138    99999.0
 352   15:30   44.5    46    1.3   104      2.7   863.0    0.00     167    99999.0
 352   15:40   45.0    45    1.8   179      5.0   863.1    0.00     164    99999.0
 352   15:50   44.8    47    2.3   252      6.1   863.2    0.00      77    99999.0
 352   16:00   44.4    49    2.1   315      4.2   863.2    0.00      33    99999.0
 352   16:10   44.1    49    2.1   307      4.2   863.2    0.00      42    99999.0
 352   16:20   43.8    49    2.0   330      4.2   863.2    0.00      31    99999.0
 352   16:30   43.6    48    1.4   314      3.9   863.3    0.00      24    99999.0
 352   16:40   43.3    49    0.5    61      1.6   863.4    0.00      14    99999.0
 352   16:50   43.0    49    1.1   353      1.8   863.4    0.00      14    99999.0
 352   17:00   42.9    48    0.5   315      0.9   863.5    0.00       9    99999.0
 352   17:10   42.0    49    0.0     0      0.0   863.5    0.00       6    99999.0
 352   17:20   40.9    51    0.0     0      0.0   863.6    0.00       0    99999.0
 352   17:30   40.0    53    0.0     0      0.0   863.7    0.00       0    99999.0
 352   17:40   39.3    55    0.0     0      0.0   863.8    0.00       0    99999.0
 352   17:50   38.6    56    0.0     0      0.0   863.8    0.00       0    99999.0
 352   18:00   37.5    58    0.0     0      0.0   863.9    0.00       0    99999.0
 352   18:10   37.3    58    0.0     0      0.0   863.9    0.00       0    99999.0
 352   18:20   37.7    56    0.1   308      0.9   864.0    0.00       0    99999.0
 352   18:30   37.6    56    0.8    62      1.3   864.1    0.00       0    99999.0
 352   18:40   37.2    57    0.2    62      1.3   864.1    0.00       0    99999.0
 352   18:50   36.5    58    0.2    62      0.9   864.2    0.00       0    99999.0
 352   19:00   35.9    59    0.1   313      1.2   864.2    0.00       0    99999.0
 352   19:10   35.4    61    0.6    55      1.5   864.4    0.00       0    99999.0
 352   19:20   34.9    62    0.4     0      1.2   864.5    0.00       0    99999.0
 352   19:30   34.6    62    1.5    98      3.7   864.5    0.00       0    99999.0
 352   19:40   34.4    62    1.3    30      2.6   864.5    0.00       0    99999.0
 352   19:50   33.8    64    0.4    31      2.1   864.5    0.00       0    99999.0
 352   20:00   33.1    67    0.0     0      0.0   864.6    0.00       0    99999.0
 352   20:10   32.9    68    1.2    59      2.3   864.6    0.00       0    99999.0
 352   20:20   32.6    70    1.6    91      2.3   864.6    0.00       0    99999.0
 352   20:30   32.5    72    1.7    86      2.3   864.5    0.00       0    99999.0
 352   20:40   32.3    74    1.3   103      2.7   864.5    0.00       0    99999.0
 352   20:50   31.8    75    0.2   103      0.9   864.5    0.00       0    99999.0
 352   21:00   31.4    76    0.1   191      1.5   864.6    0.00       0    99999.0
 352   21:10   31.5    76    1.0   190      2.2   864.8    0.00       0    99999.0
 352   21:20   31.2    75    0.7   185      1.6   864.8    0.00       0    99999.0
 352   21:30   29.7    76    1.0   180      1.7   864.9    0.00       0    99999.0
 352   21:40   28.8    80    0.3    27      1.5   865.0    0.00       0    99999.0
 352   21:50   28.7    81    0.7    24      1.5   865.0    0.00       0    99999.0
 352   22:00   28.5    81    1.1    12      1.9   865.0    0.00       0    99999.0
 352   22:10   28.2    81    0.4   346      0.9   865.1    0.00       0    99999.0
 352   22:20   28.4    81    1.5   232      3.1   865.2    0.00       0    99999.0
 352   22:30   28.2    81    1.2   250      2.0   865.3    0.00       0    99999.0
 352   22:40   27.8    80    1.1   293      1.8   865.4    0.00       0    99999.0
 352   22:50   27.1    81    1.0   305      2.2   865.4    0.00       0    99999.0
 352   23:00   26.6    82    0.8    11      1.9   865.5    0.00       0    99999.0
 352   23:10   26.4    82    0.0    38      1.2   865.5    0.00       0    99999.0
 352   23:20   26.5    84    1.4    74      1.9   865.4    0.00       0    99999.0
 352   23:30   26.8    84    0.4   107      1.3   865.3    0.00       0    99999.0
 352   23:40   27.6    83    0.9   157      1.8   865.2    0.00       0    99999.0
 352   23:50   27.5    83    1.0   101      2.1   865.1    0.00       0    99999.0
 353    0:00   27.1    83    1.3   100      2.1   865.0    0.00       0    99999.0
 353    0:10   26.6    83    1.0   137      2.3   865.0    0.00       0    99999.0
 353    0:20   26.2    84    0.0     0      0.0   864.9    0.00       0    99999.0
 353    0:30   26.0    84    0.0     0      0.0   864.8    0.00       0    99999.0
 353    0:40   26.2    85    1.8   147      3.4   864.8    0.00       0    99999.0
 353    0:50   26.5    85    2.4   142      3.3   864.8    0.00       0    99999.0
 353    1:00   26.1    85    1.8   130      2.9   864.9    0.00       0    99999.0
 353    1:10   26.1    85    1.8   112      2.7   864.9    0.00       0    99999.0
 353    1:20   26.1    85    1.0   100      1.8   865.0    0.00       0    99999.0
 353    1:30   26.2    85    1.2   125      1.8   865.0    0.00       0    99999.0
 353    1:40   26.4    85    1.4   140      2.6   865.0    0.00       0    99999.0
 353    1:50   26.7    84    1.5   167      2.7   865.0    0.00       0    99999.0
 353    2:00   26.7    82    0.4   152      1.8   865.1    0.00       0    99999.0
 353    2:10   25.8    83    1.4    24      2.0   865.1    0.00       0    99999.0
 353    2:20   24.7    84    1.5    45      2.3   865.0    0.00       0    99999.0
 353    2:30   24.1    85    1.6    33      2.1   865.1    0.00       0    99999.0
 353    2:40   23.8    86    1.5    57      2.1   865.1    0.00       0    99999.0
 353    2:50   23.8    86    1.6    87      2.6   865.2    0.00       0    99999.0
 353    3:00   24.0    86    1.0    88      1.5   865.3    0.00       0    99999.0
 353    3:10   23.9    85    0.0    79      0.4   865.3    0.00       0    99999.0
 353    3:20   23.7    86    0.0     0      0.0   865.3    0.00       0    99999.0
 353    3:30   23.8    86    0.0    79      0.3   865.4    0.00       0    99999.0
 353    3:40   24.0    86    0.3   274      1.5   865.4    0.00       0    99999.0
 353    3:50   24.4    85    0.7   266      1.7   865.4    0.00       0    99999.0
 353    4:00   24.4    84    0.0     0      0.0   865.4    0.00       0    99999.0
 353    4:10   24.0    84    0.0     0      0.0   865.4    0.00       0    99999.0
 353    4:20   23.8    85    0.0     0      0.0   865.4    0.00       0    99999.0
 353    4:30   23.7    85    0.3   137      1.5   865.4    0.00       0    99999.0
 353    4:40   24.2    85    1.6   124      2.6   865.3    0.00       0    99999.0
 353    4:50   24.0    84    2.0   116      3.4   865.2    0.00       0    99999.0
 353    5:00   22.9    84    2.3   105      3.6   865.2    0.00       0    99999.0
 353    5:10   22.4    86    1.7   106      2.6   865.1    0.00       0    99999.0
 353    5:20   22.4    86    1.2   140      2.0   865.1    0.00       0    99999.0
 353    5:30   22.3    87    0.8   131      2.0   865.1    0.00       0    99999.0
 353    5:40   22.2    87    1.0   122      2.0   865.1    0.00       0    99999.0
 353    5:50   22.5    87    1.3   133      2.0   865.1    0.00       0    99999.0
 353    6:00   23.7    87    1.3   140      2.2   865.2    0.00       0    99999.0
 353    6:10   24.5    85    0.8   138      1.7   865.2    0.00       0    99999.0
 353    6:20   24.6    84    0.1   134      0.9   865.2    0.00       0    99999.0
 353    6:30   24.5    83    0.5   146      1.7   865.3    0.00       0    99999.0
 353    6:40   24.5    82    0.6   150      1.6   865.3    0.00       0    99999.0
 353    6:50   24.4    82    0.2   158      0.7   865.4    0.00       0    99999.0

Return to Delta, Utah graphs page.


Western Regional Climate Center,wrcc@dri.edu